createdAt,value
2017-09-18T00:00:20.537Z,24.33
2017-09-18T00:00:55.388Z,20.50
2017-09-18T00:01:29.101Z,29.23
2017-09-18T00:02:02.820Z,20.33
2017-09-18T00:02:36.393Z,23.40
2017-09-18T00:03:10.118Z,25.73
2017-09-18T00:03:44.887Z,22.62
2017-09-18T00:04:18.622Z,24.52
2017-09-18T00:04:52.340Z,23.67
2017-09-18T00:05:26.067Z,22.42
2017-09-18T00:06:00.222Z,24.33
2017-09-18T00:06:34.009Z,26.45
2017-09-18T00:07:08.490Z,23.75
2017-09-18T00:07:42.216Z,27.85
2017-09-18T00:08:16.768Z,26.27
2017-09-18T00:08:50.568Z,23.45
2017-09-18T00:09:24.289Z,27.20
2017-09-18T00:09:58.025Z,23.05
2017-09-18T00:10:31.733Z,26.65
2017-09-18T00:11:06.819Z,26.50
2017-09-18T00:11:40.528Z,27.25
2017-09-18T00:12:14.240Z,29.75
2017-09-18T00:12:47.968Z,24.92
2017-09-18T00:13:22.456Z,22.52
2017-09-18T00:13:56.176Z,23.05
2017-09-18T00:14:30.697Z,24.98
2017-09-18T00:15:04.504Z,23.77
2017-09-18T00:15:38.235Z,28.00
2017-09-18T00:16:12.400Z,25.23
2017-09-18T00:16:46.120Z,27.62
2017-09-18T00:17:19.832Z,30.62
2017-09-18T00:17:53.541Z,22.25
2017-09-18T00:18:28.063Z,24.27
2017-09-18T00:19:01.772Z,24.58
2017-09-18T00:19:35.297Z,23.10
2017-09-18T00:20:09.023Z,23.98
2017-09-18T00:20:43.500Z,23.10
2017-09-18T00:21:17.543Z,26.52
2017-09-18T00:21:51.250Z,24.37
2017-09-18T00:22:24.963Z,32.55
2017-09-18T00:22:58.692Z,23.58
2017-09-18T00:23:33.188Z,23.25
2017-09-18T00:24:06.975Z,23.30
2017-09-18T00:24:40.690Z,32.58
2017-09-18T00:25:15.156Z,23.38
2017-09-18T00:25:48.867Z,22.85
2017-09-18T00:26:22.911Z,25.42
2017-09-18T00:26:56.675Z,25.52
2017-09-18T00:27:31.145Z,23.95
2017-09-18T00:28:04.867Z,22.40
2017-09-18T00:28:39.355Z,28.92
2017-09-18T00:29:13.062Z,24.92
2017-09-18T00:29:46.822Z,24.35
2017-09-18T00:30:19.848Z,27.42
2017-09-18T00:30:53.564Z,24.77
2017-09-18T00:31:27.596Z,21.83
2017-09-18T00:32:01.312Z,24.15
2017-09-18T00:32:35.793Z,23.10
2017-09-18T00:33:09.506Z,23.33
2017-09-18T00:33:43.985Z,27.70
2017-09-18T00:34:17.692Z,27.40
2017-09-18T00:34:51.222Z,27.85
2017-09-18T00:35:24.938Z,26.58
2017-09-18T00:35:58.640Z,26.02
2017-09-18T00:36:32.685Z,31.30
2017-09-18T00:37:07.216Z,33.22
2017-09-18T00:37:40.572Z,30.12
2017-09-18T00:38:15.044Z,26.67
2017-09-18T00:38:48.746Z,25.73
2017-09-18T00:39:22.464Z,35.13
2017-09-18T00:39:56.983Z,24.37
2017-09-18T00:40:30.702Z,25.88
2017-09-18T00:41:04.418Z,30.12
2017-09-18T00:41:38.453Z,23.98
2017-09-18T00:42:12.573Z,24.83
2017-09-18T00:42:46.282Z,20.77
2017-09-18T00:43:20.030Z,28.73
2017-09-18T00:43:54.179Z,20.90
2017-09-18T00:44:28.768Z,25.15
2017-09-18T00:45:02.481Z,25.35
2017-09-18T00:45:36.198Z,21.35
2017-09-18T00:46:09.903Z,25.33
2017-09-18T00:46:44.440Z,24.67
2017-09-18T00:47:18.167Z,20.40
2017-09-18T00:47:51.899Z,20.02
2017-09-18T00:48:26.377Z,19.73
2017-09-18T00:49:00.099Z,18.62
2017-09-18T00:49:34.624Z,21.98
2017-09-18T00:50:07.649Z,19.23
2017-09-18T00:50:40.720Z,19.27
2017-09-18T00:51:13.733Z,21.00
2017-09-18T00:51:47.607Z,19.08
2017-09-18T00:52:20.448Z,19.40
2017-09-18T00:52:53.280Z,18.67
2017-09-18T00:53:26.118Z,18.37
2017-09-18T00:53:58.962Z,18.48
2017-09-18T00:54:31.792Z,20.85
2017-09-18T00:55:05.730Z,19.70
2017-09-18T00:55:38.748Z,21.23
2017-09-18T00:56:13.221Z,20.98
2017-09-18T00:56:47.264Z,20.75
2017-09-18T00:57:21.007Z,18.50
2017-09-18T00:57:54.197Z,19.90
2017-09-18T00:58:27.910Z,16.85
2017-09-18T00:59:02.401Z,18.42
2017-09-18T00:59:35.756Z,21.35
2017-09-18T01:00:09.120Z,17.70
2017-09-18T01:00:42.853Z,19.05
2017-09-18T01:01:16.561Z,20.35
2017-09-18T01:01:51.439Z,18.77
2017-09-18T01:02:25.148Z,22.02
2017-09-18T01:02:58.864Z,18.90
2017-09-18T01:03:33.348Z,17.58
2017-09-18T01:04:08.601Z,17.90
2017-09-18T01:04:43.134Z,20.35
2017-09-18T01:05:16.858Z,19.77
2017-09-18T01:05:50.582Z,18.60
2017-09-18T01:06:25.061Z,19.23
2017-09-18T01:06:59.136Z,18.58
2017-09-18T01:07:32.869Z,20.40
2017-09-18T01:08:07.595Z,16.37
2017-09-18T01:08:42.069Z,16.77
2017-09-18T01:09:15.796Z,18.15
2017-09-18T01:09:50.278Z,17.95
2017-09-18T01:10:24.023Z,18.70
2017-09-18T01:10:57.733Z,21.27
2017-09-18T01:11:31.107Z,18.58
2017-09-18T01:12:04.810Z,19.33
2017-09-18T01:12:38.508Z,20.90
2017-09-18T01:13:11.871Z,17.60
2017-09-18T01:13:45.634Z,18.35
2017-09-18T01:14:20.818Z,19.12
2017-09-18T01:14:54.544Z,19.33
2017-09-18T01:15:29.028Z,18.65
2017-09-18T01:16:02.738Z,16.90
2017-09-18T01:16:37.519Z,19.62
2017-09-18T01:17:11.556Z,19.85
2017-09-18T01:17:46.023Z,21.35
2017-09-18T01:18:19.773Z,20.42
2017-09-18T01:18:53.493Z,18.90
2017-09-18T01:19:26.858Z,18.87
2017-09-18T01:20:00.314Z,20.80
2017-09-18T01:20:35.058Z,18.73
2017-09-18T01:21:08.425Z,17.95
2017-09-18T01:21:42.140Z,18.67
2017-09-18T01:22:15.910Z,18.15
2017-09-18T01:22:48.946Z,17.90
2017-09-18T01:23:22.659Z,17.52
2017-09-18T01:23:57.151Z,18.50
2017-09-18T01:24:31.629Z,18.65
2017-09-18T01:25:05.333Z,18.00
2017-09-18T01:25:39.042Z,19.52
2017-09-18T01:26:13.516Z,18.15
2017-09-18T01:26:47.228Z,18.02
2017-09-18T01:27:21.264Z,17.73
2017-09-18T01:27:55.729Z,20.20
2017-09-18T01:28:29.446Z,18.30
2017-09-18T01:29:03.922Z,19.23
2017-09-18T01:29:37.649Z,20.15
2017-09-18T01:30:12.137Z,21.65
2017-09-18T01:30:45.860Z,17.95
2017-09-18T01:31:19.572Z,18.12
2017-09-18T01:31:52.758Z,17.77
2017-09-18T01:32:26.827Z,20.37
2017-09-18T01:33:00.558Z,19.30
2017-09-18T01:33:34.273Z,22.35
2017-09-18T01:34:07.992Z,18.73
2017-09-18T01:34:42.475Z,17.60
2017-09-18T01:35:16.237Z,19.73
2017-09-18T01:35:49.959Z,20.27
2017-09-18T01:36:23.929Z,20.77
2017-09-18T01:36:57.648Z,18.60
2017-09-18T01:37:31.672Z,21.98
2017-09-18T01:38:06.155Z,18.20
2017-09-18T01:38:39.872Z,18.23
2017-09-18T01:39:14.383Z,16.98
2017-09-18T01:39:48.186Z,18.17
2017-09-18T01:40:22.108Z,17.85
2017-09-18T01:40:55.813Z,17.95
2017-09-18T01:41:29.565Z,17.37
2017-09-18T01:42:03.283Z,18.35
2017-09-18T01:42:37.005Z,18.20
2017-09-18T01:43:10.712Z,16.45
2017-09-18T01:43:45.200Z,17.70
2017-09-18T01:44:18.911Z,17.85
2017-09-18T01:44:53.381Z,18.42
2017-09-18T01:45:27.099Z,17.05
2017-09-18T01:46:01.578Z,18.87
2017-09-18T01:46:35.284Z,15.70
2017-09-18T01:47:09.015Z,17.23
2017-09-18T01:47:43.111Z,17.17
2017-09-18T01:48:16.820Z,19.40
2017-09-18T01:48:50.530Z,18.83
2017-09-18T01:49:24.245Z,17.50
2017-09-18T01:49:57.949Z,16.33
2017-09-18T01:50:32.471Z,17.30
2017-09-18T01:51:06.952Z,16.90
2017-09-18T01:51:41.516Z,17.58
2017-09-18T01:52:15.229Z,15.88
2017-09-18T01:52:49.239Z,17.17
2017-09-18T01:53:23.882Z,17.62
2017-09-18T01:53:58.364Z,17.52
2017-09-18T01:54:32.095Z,17.00
2017-09-18T01:55:06.588Z,16.35
2017-09-18T01:55:41.073Z,16.95
2017-09-18T01:56:14.789Z,17.60
2017-09-18T01:56:49.272Z,15.98
2017-09-18T01:57:23.084Z,16.95
2017-09-18T01:57:57.116Z,18.37
2017-09-18T01:58:30.829Z,17.62
2017-09-18T01:59:04.537Z,19.25
2017-09-18T01:59:38.256Z,19.12
2017-09-18T02:00:12.735Z,17.87
2017-09-18T02:00:46.457Z,16.30
2017-09-18T02:01:20.767Z,16.77
2017-09-18T02:01:55.268Z,17.80
2017-09-18T02:02:28.985Z,17.92
2017-09-18T02:03:02.892Z,15.80
2017-09-18T02:03:36.619Z,15.13
2017-09-18T02:04:10.342Z,18.58
2017-09-18T02:04:44.822Z,18.25
2017-09-18T02:05:18.012Z,18.85
2017-09-18T02:05:51.748Z,20.58
2017-09-18T02:06:25.471Z,16.85
2017-09-18T02:06:59.184Z,16.83
2017-09-18T02:07:32.898Z,17.67
2017-09-18T02:08:07.740Z,17.95
2017-09-18T02:08:41.460Z,17.10
2017-09-18T02:09:15.197Z,17.05
2017-09-18T02:09:49.676Z,17.83
2017-09-18T02:10:23.397Z,17.35
2017-09-18T02:10:57.876Z,19.65
2017-09-18T02:11:31.606Z,18.98
2017-09-18T02:12:05.341Z,18.27
2017-09-18T02:12:39.076Z,19.73
2017-09-18T02:13:13.912Z,22.85
2017-09-18T02:13:47.624Z,18.73
2017-09-18T02:14:21.356Z,20.62
2017-09-18T02:14:55.066Z,14.85
2017-09-18T02:15:29.552Z,17.65
2017-09-18T02:16:04.035Z,14.80
2017-09-18T02:16:37.756Z,14.60
2017-09-18T02:17:11.460Z,16.58
2017-09-18T02:17:45.944Z,14.98
2017-09-18T02:18:19.933Z,16.42
2017-09-18T02:18:53.655Z,16.12
2017-09-18T02:19:28.133Z,15.50
2017-09-18T02:20:01.853Z,15.98
2017-09-18T02:20:36.330Z,14.90
2017-09-18T02:21:09.857Z,15.23
2017-09-18T02:21:43.582Z,16.23
2017-09-18T02:22:17.289Z,16.15
2017-09-18T02:22:51.020Z,15.20
2017-09-18T02:23:25.849Z,15.40
2017-09-18T02:23:59.569Z,15.52
2017-09-18T02:24:33.284Z,17.55
2017-09-18T02:25:06.996Z,17.80
2017-09-18T02:25:40.758Z,16.65
2017-09-18T02:26:14.482Z,14.13
2017-09-18T02:26:48.961Z,16.83
2017-09-18T02:27:22.677Z,16.83
2017-09-18T02:27:56.386Z,14.95
2017-09-18T02:28:30.294Z,16.60
2017-09-18T02:29:04.025Z,14.27
2017-09-18T02:29:37.758Z,15.48
2017-09-18T02:30:11.887Z,15.20
2017-09-18T02:30:45.611Z,16.62
2017-09-18T02:31:19.137Z,15.75
2017-09-18T02:31:53.626Z,18.48
2017-09-18T02:32:27.350Z,18.45
2017-09-18T02:33:01.072Z,17.02
2017-09-18T02:33:35.137Z,16.75
2017-09-18T02:34:08.680Z,15.75
2017-09-18T02:34:42.412Z,16.87
2017-09-18T02:35:16.135Z,16.77
2017-09-18T02:35:49.845Z,17.40
2017-09-18T02:36:23.473Z,17.75
2017-09-18T02:36:57.963Z,17.15
2017-09-18T02:37:31.684Z,15.60
2017-09-18T02:38:05.417Z,15.68
2017-09-18T02:38:39.300Z,15.80
2017-09-18T02:39:13.030Z,16.75
2017-09-18T02:39:47.519Z,16.08
2017-09-18T02:40:21.230Z,17.55
2017-09-18T02:40:55.714Z,15.80
2017-09-18T02:41:29.443Z,16.85
2017-09-18T02:42:03.931Z,15.98
2017-09-18T02:42:37.300Z,17.52
2017-09-18T02:43:11.028Z,17.73
2017-09-18T02:43:45.863Z,19.90
2017-09-18T02:44:19.577Z,17.77
2017-09-18T02:44:53.281Z,17.27
2017-09-18T02:45:26.999Z,16.98
2017-09-18T02:46:00.711Z,15.68
2017-09-18T02:46:35.197Z,16.23
2017-09-18T02:47:08.913Z,14.98
2017-09-18T02:47:43.394Z,16.17
2017-09-18T02:48:17.112Z,15.63
2017-09-18T02:48:51.951Z,15.13
2017-09-18T02:49:25.661Z,13.98
2017-09-18T02:49:59.379Z,14.20
2017-09-18T02:50:33.100Z,15.30
2017-09-18T02:51:07.579Z,16.50
2017-09-18T02:51:41.306Z,13.25
2017-09-18T02:52:15.025Z,16.83
2017-09-18T02:52:48.757Z,15.30
2017-09-18T02:53:22.483Z,14.48
2017-09-18T02:53:56.530Z,14.05
2017-09-18T02:54:30.256Z,16.08
2017-09-18T02:55:04.741Z,15.30
2017-09-18T02:55:38.493Z,15.77
2017-09-18T02:56:12.249Z,19.73
2017-09-18T02:56:46.760Z,15.05
2017-09-18T02:57:20.493Z,15.93
2017-09-18T02:57:54.230Z,16.58
2017-09-18T02:58:28.712Z,14.38
2017-09-18T02:59:02.771Z,16.00
2017-09-18T02:59:36.485Z,14.95
2017-09-18T03:00:09.887Z,17.40
2017-09-18T03:00:43.587Z,16.67
2017-09-18T03:01:17.301Z,20.23
2017-09-18T03:01:51.802Z,16.48
2017-09-18T03:02:26.278Z,15.35
2017-09-18T04:23:03.597Z,28.20
2017-09-18T04:23:37.296Z,28.45
2017-09-18T04:24:11.018Z,36.28
2017-09-18T04:24:45.480Z,28.48
2017-09-18T04:25:19.188Z,28.10
2017-09-18T04:25:52.901Z,30.48
2017-09-18T04:26:27.204Z,29.05
2017-09-18T04:27:00.923Z,26.15
2017-09-18T04:27:34.444Z,29.40
2017-09-18T04:28:08.490Z,27.35
2017-09-18T04:28:42.956Z,26.05
2017-09-18T04:29:16.657Z,25.60
2017-09-18T04:29:50.368Z,25.52
2017-09-18T04:30:24.841Z,34.38
2017-09-18T04:30:58.557Z,29.12
2017-09-18T04:31:32.096Z,25.55
2017-09-18T04:32:05.825Z,35.22
2017-09-18T04:32:40.316Z,31.05
2017-09-18T04:33:14.379Z,28.87
2017-09-18T04:33:48.092Z,33.60
2017-09-18T04:34:21.625Z,36.72
2017-09-18T04:34:55.321Z,30.83
2017-09-18T04:35:29.799Z,25.30
2017-09-18T04:36:02.985Z,31.25
2017-09-18T04:36:36.695Z,46.20
2017-09-18T04:37:11.172Z,35.83
2017-09-18T04:37:44.908Z,36.55
2017-09-18T04:38:19.013Z,34.63
2017-09-18T04:38:52.772Z,29.50
2017-09-18T04:39:26.309Z,33.60
2017-09-18T04:39:59.497Z,35.13
2017-09-18T04:40:33.223Z,35.38
2017-09-18T04:41:06.949Z,34.63
2017-09-18T04:41:40.683Z,38.50
2017-09-18T04:42:14.414Z,30.17
2017-09-18T04:42:48.887Z,29.95
2017-09-18T04:43:22.962Z,44.42
2017-09-18T04:43:56.663Z,34.63
2017-09-18T04:44:30.365Z,28.42
2017-09-18T04:45:03.740Z,41.83
2017-09-18T04:45:37.461Z,36.65
2017-09-18T04:46:11.209Z,41.97
2017-09-18T04:46:44.932Z,35.83
2017-09-18T04:47:18.650Z,38.20
2017-09-18T04:47:53.121Z,40.00
2017-09-18T04:48:27.184Z,39.28
2017-09-18T04:49:00.950Z,54.22
2017-09-18T04:49:35.434Z,35.97
2017-09-18T04:50:09.151Z,38.28
2017-09-18T04:50:43.633Z,39.67
2017-09-18T04:51:17.331Z,43.22
2017-09-18T04:51:51.040Z,47.70
2017-09-18T04:52:25.517Z,46.83
2017-09-18T04:52:59.255Z,42.50
2017-09-18T04:53:33.281Z,35.05
2017-09-18T04:54:06.998Z,52.62
2017-09-18T04:54:40.536Z,40.28
2017-09-18T04:55:14.258Z,68.60
2017-09-18T04:55:47.972Z,44.30
2017-09-18T04:56:21.704Z,38.25
2017-09-18T04:56:55.225Z,42.88
2017-09-18T04:57:28.945Z,42.70
2017-09-18T04:58:03.425Z,43.50
2017-09-18T04:58:37.486Z,67.03
2017-09-18T04:59:11.005Z,52.67
2017-09-18T04:59:44.762Z,34.58
2017-09-18T05:00:18.481Z,39.25
2017-09-18T05:00:52.180Z,53.20
2017-09-18T05:01:25.892Z,22.75
2017-09-18T05:01:59.608Z,37.08
2017-09-18T05:02:34.084Z,38.00
2017-09-18T05:03:07.811Z,37.47
2017-09-18T05:03:41.934Z,33.45
2017-09-18T05:04:15.644Z,43.08
2017-09-18T05:04:49.973Z,37.75
2017-09-18T05:05:24.452Z,43.47
2017-09-18T05:05:58.162Z,49.63
2017-09-18T05:06:31.959Z,35.67
2017-09-18T05:07:05.682Z,27.30
2017-09-18T05:07:40.153Z,32.70
2017-09-18T05:08:13.869Z,27.48
2017-09-18T05:08:48.712Z,43.58
2017-09-18T05:09:22.487Z,39.47
2017-09-18T05:09:56.956Z,39.25
2017-09-18T05:10:30.666Z,53.00
2017-09-18T05:11:04.376Z,33.22
2017-09-18T05:11:38.846Z,32.35
2017-09-18T05:12:12.557Z,34.45
2017-09-18T05:12:46.286Z,33.75
2017-09-18T05:13:20.005Z,27.65
2017-09-18T05:13:54.063Z,26.52
2017-09-18T05:14:28.541Z,26.73
2017-09-18T05:15:02.262Z,20.08
2017-09-18T05:15:36.748Z,28.35
2017-09-18T05:16:11.049Z,20.45
2017-09-18T05:16:44.417Z,22.13
2017-09-18T05:17:18.139Z,23.25
2017-09-18T05:17:52.624Z,22.67
2017-09-18T05:18:26.331Z,20.55
2017-09-18T05:19:00.329Z,27.50
2017-09-18T05:19:34.795Z,20.30
2017-09-18T05:20:08.513Z,30.02
2017-09-18T05:20:42.236Z,28.92
2017-09-18T05:21:15.945Z,22.67
2017-09-18T05:21:49.654Z,25.30
2017-09-18T05:22:23.385Z,19.95
2017-09-18T05:22:57.100Z,28.33
2017-09-18T05:23:31.392Z,27.23
2017-09-18T05:24:06.020Z,23.90
2017-09-18T05:24:39.736Z,21.70
2017-09-18T05:25:13.432Z,24.05
2017-09-18T05:25:47.165Z,22.48
2017-09-18T05:26:20.688Z,21.83
2017-09-18T05:26:54.396Z,23.23
2017-09-18T05:27:28.096Z,24.92
2017-09-18T05:28:01.849Z,26.05
2017-09-18T05:28:35.374Z,26.33
2017-09-18T05:29:09.229Z,25.17
2017-09-18T05:29:42.944Z,18.45
2017-09-18T05:30:16.659Z,22.30
2017-09-18T05:30:50.379Z,26.05
2017-09-18T05:31:24.676Z,24.83
2017-09-18T05:31:59.150Z,20.98
2017-09-18T05:32:32.865Z,31.02
2017-09-18T05:33:06.592Z,20.70
2017-09-18T05:33:40.373Z,18.25
2017-09-18T05:34:14.948Z,22.73
2017-09-18T05:34:48.468Z,28.98
2017-09-18T05:35:22.756Z,33.50
2017-09-18T05:35:56.466Z,25.25
2017-09-18T05:36:30.948Z,22.58
2017-09-18T05:37:04.662Z,21.15
2017-09-18T05:37:39.130Z,28.75
2017-09-18T05:38:12.844Z,27.83
2017-09-18T05:38:47.336Z,24.77
2017-09-18T05:39:21.373Z,23.23
2017-09-18T05:39:55.845Z,30.42
2017-09-18T05:40:29.545Z,27.42
2017-09-18T05:41:03.256Z,29.45
2017-09-18T05:41:37.729Z,28.10
2017-09-18T05:42:11.428Z,28.25
2017-09-18T05:42:45.142Z,22.05
2017-09-18T05:43:19.614Z,27.05
2017-09-18T05:43:53.324Z,30.73
2017-09-18T05:44:27.354Z,25.10
2017-09-18T05:45:01.067Z,24.35
2017-09-18T05:45:34.786Z,22.48
2017-09-18T05:46:08.511Z,21.87
2017-09-18T05:46:42.992Z,26.23
2017-09-18T05:47:16.708Z,20.60
2017-09-18T05:47:51.217Z,38.38
2017-09-18T05:48:25.701Z,21.83
2017-09-18T05:48:59.400Z,26.50
2017-09-18T05:49:33.428Z,46.88
2017-09-18T05:50:07.131Z,22.55
2017-09-18T05:50:40.841Z,31.05
2017-09-18T05:51:14.541Z,30.23
2017-09-18T05:51:48.261Z,30.02
2017-09-18T05:52:21.969Z,33.00
2017-09-18T05:52:56.439Z,28.23
2017-09-18T05:53:30.141Z,26.12
2017-09-18T05:54:03.857Z,32.72
2017-09-18T05:54:40.226Z,30.25
2017-09-18T05:55:13.753Z,30.70
2017-09-18T05:55:47.467Z,29.10
2017-09-18T05:56:21.941Z,26.05
2017-09-18T05:56:55.650Z,25.70
2017-09-18T05:57:29.375Z,36.10
2017-09-18T05:58:03.660Z,22.27
2017-09-18T05:58:37.364Z,21.83
2017-09-18T05:59:11.864Z,23.58
2017-09-18T05:59:46.701Z,17.35
2017-09-18T06:00:21.071Z,24.20
2017-09-18T06:00:54.780Z,28.02
2017-09-18T06:01:28.488Z,13.13
2017-09-18T06:02:02.976Z,20.60
2017-09-18T06:02:36.500Z,20.00
2017-09-18T06:03:10.217Z,21.95
2017-09-18T06:03:43.940Z,16.23
2017-09-18T06:04:17.669Z,14.75
2017-09-18T06:04:51.770Z,17.80
2017-09-18T06:05:25.484Z,14.95
2017-09-18T06:05:59.228Z,14.20
2017-09-18T06:06:33.717Z,16.90
2017-09-18T06:07:07.233Z,18.05
2017-09-18T06:07:41.522Z,17.80
2017-09-18T06:08:16.032Z,16.80
2017-09-18T06:08:50.521Z,15.23
2017-09-18T06:09:25.767Z,21.15
2017-09-18T06:09:59.890Z,14.90
2017-09-18T06:10:33.408Z,14.57
2017-09-18T06:11:07.149Z,14.93
2017-09-18T06:11:41.619Z,15.30
2017-09-18T06:12:15.325Z,13.68
2017-09-18T06:12:49.031Z,13.55
2017-09-18T06:13:22.741Z,16.00
2017-09-18T06:13:56.462Z,18.48
2017-09-18T06:14:30.188Z,13.50
2017-09-18T06:15:03.933Z,15.38
2017-09-18T06:15:37.666Z,16.98
2017-09-18T06:16:12.147Z,13.30
2017-09-18T06:16:45.857Z,12.25
2017-09-18T06:17:19.579Z,15.40
2017-09-18T06:17:54.051Z,10.15
2017-09-18T06:18:27.757Z,12.02
2017-09-18T06:19:01.474Z,15.68
2017-09-18T06:19:35.943Z,11.73
2017-09-18T06:20:09.668Z,14.73
2017-09-18T06:20:44.132Z,11.90
2017-09-18T06:21:17.841Z,13.93
2017-09-18T06:21:51.564Z,14.85
2017-09-18T06:22:26.042Z,13.68
2017-09-18T06:22:59.740Z,14.25
2017-09-18T06:23:33.451Z,15.63
2017-09-18T06:24:07.911Z,20.25
2017-09-18T06:24:41.610Z,11.20
2017-09-18T06:25:15.618Z,13.00
2017-09-18T06:25:49.344Z,13.62
2017-09-18T06:26:23.824Z,10.95
2017-09-18T06:26:57.545Z,12.23
2017-09-18T06:27:31.826Z,12.20
2017-09-18T06:28:05.533Z,11.77
2017-09-18T06:28:39.999Z,9.15
2017-09-18T06:29:13.709Z,15.63
2017-09-18T06:29:47.420Z,12.45
2017-09-18T06:30:22.337Z,16.75
2017-09-18T06:30:56.807Z,12.30
2017-09-18T06:31:30.329Z,9.75
2017-09-18T06:32:04.803Z,13.25
2017-09-18T06:32:38.509Z,10.15
2017-09-18T06:33:12.053Z,12.43
2017-09-18T06:33:45.773Z,15.57
2017-09-18T06:34:19.472Z,11.77
2017-09-18T06:34:53.185Z,18.55
2017-09-18T06:35:28.019Z,10.13
2017-09-18T06:36:02.486Z,9.55
2017-09-18T06:36:36.238Z,9.82
2017-09-18T06:37:09.957Z,16.27
2017-09-18T06:37:43.667Z,10.32
2017-09-18T06:38:17.376Z,15.30
2017-09-18T06:38:51.853Z,14.18
2017-09-18T06:39:25.880Z,16.45
2017-09-18T06:40:00.169Z,14.87
2017-09-18T06:40:35.045Z,16.42
2017-09-18T06:41:08.751Z,9.32
2017-09-18T06:41:42.457Z,13.52
2017-09-18T06:42:16.151Z,8.85
2017-09-18T06:42:49.858Z,8.98
2017-09-18T06:43:24.336Z,19.50
2017-09-18T06:43:58.054Z,13.15
2017-09-18T06:44:32.527Z,16.33
2017-09-18T06:45:06.245Z,15.38
2017-09-18T06:45:41.093Z,17.05
2017-09-18T06:46:14.816Z,16.30
2017-09-18T06:46:48.537Z,18.50
2017-09-18T06:47:22.252Z,12.73
2017-09-18T06:47:56.733Z,11.35
2017-09-18T06:48:30.455Z,13.68
2017-09-18T06:49:04.955Z,23.90
2017-09-18T06:49:39.444Z,18.70
2017-09-18T06:50:13.163Z,11.75
2017-09-18T06:50:47.257Z,16.50
2017-09-18T06:51:21.763Z,24.00
2017-09-18T06:51:56.245Z,23.85
2017-09-18T06:52:29.964Z,22.02
2017-09-18T06:53:04.459Z,22.15
2017-09-18T06:53:38.968Z,19.60
2017-09-18T06:54:13.505Z,18.45
2017-09-18T06:54:47.242Z,16.08
2017-09-18T06:55:20.953Z,12.50
2017-09-18T06:55:54.980Z,14.35
2017-09-18T06:56:28.688Z,14.15
2017-09-18T06:57:02.411Z,25.08
2017-09-18T06:57:36.139Z,14.77
2017-09-18T06:58:10.702Z,8.50
2017-09-18T06:58:44.413Z,8.38
2017-09-18T06:59:18.124Z,12.30
2017-09-18T06:59:51.853Z,15.18
2017-09-18T07:00:26.239Z,10.18
2017-09-18T07:01:01.056Z,8.35
2017-09-18T07:01:35.531Z,12.75
2017-09-18T07:02:09.245Z,11.02
2017-09-18T07:02:43.713Z,8.60
2017-09-18T07:03:17.428Z,8.90
2017-09-18T07:03:51.144Z,12.57
2017-09-18T07:04:24.879Z,14.77
2017-09-18T07:04:58.589Z,11.27
2017-09-18T07:05:32.311Z,13.43
2017-09-18T07:06:07.073Z,12.68
2017-09-18T07:06:40.793Z,14.35
2017-09-18T07:07:14.566Z,20.60
2017-09-18T07:07:48.297Z,16.55
2017-09-18T07:08:22.773Z,27.05
2017-09-18T07:08:56.495Z,15.90
2017-09-18T07:09:30.983Z,10.82
2017-09-18T07:10:04.681Z,9.85
2017-09-18T07:10:39.003Z,11.63
2017-09-18T07:11:13.793Z,11.30
2017-09-18T07:11:47.512Z,14.15
2017-09-18T07:12:21.997Z,12.05
2017-09-18T07:12:55.705Z,11.35
2017-09-18T07:13:30.169Z,8.73
2017-09-18T07:14:03.882Z,10.95
2017-09-18T07:14:37.599Z,14.48
2017-09-18T07:15:12.079Z,11.52
2017-09-18T07:15:45.800Z,10.88
2017-09-18T07:16:19.917Z,10.15
2017-09-18T07:16:53.644Z,11.65
2017-09-18T07:17:27.361Z,12.70
2017-09-18T07:18:01.073Z,10.90
2017-09-18T07:18:34.789Z,13.50
2017-09-18T07:19:08.498Z,14.27
2017-09-18T07:19:42.217Z,20.17
2017-09-18T07:20:15.921Z,12.48
2017-09-18T07:20:50.405Z,13.07
2017-09-18T07:21:24.448Z,13.60
2017-09-18T07:21:58.169Z,16.73
2017-09-18T07:22:31.876Z,12.23
2017-09-18T07:23:05.589Z,16.42
2017-09-18T07:23:40.089Z,14.13
2017-09-18T07:24:13.792Z,10.70
2017-09-18T07:24:47.501Z,13.18
2017-09-18T07:25:21.209Z,15.07
2017-09-18T07:25:54.918Z,13.98
2017-09-18T07:26:28.987Z,12.02
2017-09-18T07:27:02.723Z,16.52
2017-09-18T07:27:36.464Z,18.05
2017-09-18T07:28:10.192Z,16.17
2017-09-18T07:28:43.934Z,14.73
2017-09-18T07:29:18.432Z,32.92
2017-09-18T07:29:52.931Z,14.98
2017-09-18T07:30:27.193Z,19.30
2017-09-18T07:31:00.909Z,18.25
2017-09-18T07:31:34.963Z,13.93
2017-09-18T07:32:08.682Z,13.48
2017-09-18T07:32:42.407Z,11.15
2017-09-18T07:33:16.134Z,15.32
2017-09-18T07:33:49.872Z,14.43
2017-09-18T07:34:23.410Z,16.45
2017-09-18T07:34:57.135Z,13.18
2017-09-18T07:35:30.861Z,14.95
2017-09-18T07:36:04.222Z,11.82
2017-09-18T07:36:38.066Z,19.75
2017-09-18T07:37:11.769Z,11.65
2017-09-18T07:37:45.480Z,12.90
2017-09-18T07:38:19.252Z,15.07
2017-09-18T07:38:53.116Z,14.52
2017-09-18T07:39:27.604Z,13.85
2017-09-18T07:40:01.331Z,14.43
2017-09-18T07:40:35.056Z,14.93
2017-09-18T07:41:08.785Z,15.55
2017-09-18T07:41:42.812Z,23.87
2017-09-18T07:42:16.542Z,27.25
2017-09-18T07:42:50.261Z,20.88
2017-09-18T07:43:24.747Z,16.77
2017-09-18T07:43:58.471Z,19.12
2017-09-18T07:44:32.968Z,21.77
2017-09-18T07:45:06.722Z,19.35
2017-09-18T07:45:40.445Z,15.20
2017-09-18T07:46:14.181Z,17.75
2017-09-18T07:46:48.261Z,15.13
2017-09-18T07:47:22.748Z,18.15
2017-09-18T07:47:56.492Z,17.27
2017-09-18T07:48:30.042Z,22.00
2017-09-18T07:49:04.526Z,23.05
2017-09-18T07:49:38.251Z,19.90
2017-09-18T07:50:12.725Z,22.10
2017-09-18T07:50:46.444Z,15.68
2017-09-18T07:51:20.950Z,19.80
2017-09-18T07:51:55.778Z,19.90
2017-09-18T07:52:30.256Z,24.00
2017-09-18T07:53:04.015Z,18.83
2017-09-18T07:53:37.741Z,18.73
2017-09-18T07:54:11.278Z,17.92
2017-09-18T07:54:44.989Z,21.75
2017-09-18T07:55:18.711Z,17.30
2017-09-18T07:55:52.237Z,18.12
2017-09-18T07:56:25.427Z,19.65
2017-09-18T07:56:59.509Z,15.68
2017-09-18T07:57:33.284Z,18.15
2017-09-18T07:58:07.773Z,20.83
2017-09-18T07:58:41.497Z,19.92
2017-09-18T07:59:15.201Z,22.92
2017-09-18T07:59:48.910Z,24.50
2017-09-18T08:00:22.621Z,22.48
2017-09-18T08:00:56.327Z,21.15
2017-09-18T08:01:30.065Z,24.17
2017-09-18T08:02:03.673Z,22.73
2017-09-18T08:02:37.388Z,26.20
2017-09-18T08:03:10.761Z,24.48
2017-09-18T08:03:44.482Z,19.95
2017-09-18T08:04:18.962Z,25.08
2017-09-18T08:04:52.514Z,25.40
2017-09-18T08:05:26.237Z,21.70
2017-09-18T08:05:59.987Z,23.15
2017-09-18T08:06:33.719Z,19.12
2017-09-18T08:07:07.780Z,18.83
2017-09-18T08:07:41.491Z,22.42
2017-09-18T08:08:15.233Z,32.95
2017-09-18T08:08:49.735Z,20.45
2017-09-18T08:09:23.517Z,24.12
2017-09-18T08:09:57.242Z,26.92
2017-09-18T08:10:30.964Z,21.48
2017-09-18T08:11:04.676Z,24.17
2017-09-18T08:11:38.397Z,17.92
2017-09-18T08:12:13.237Z,18.23
2017-09-18T08:12:46.987Z,21.27
2017-09-18T08:13:20.708Z,24.05
2017-09-18T08:13:54.436Z,29.52
2017-09-18T08:14:28.176Z,25.65
2017-09-18T08:15:02.661Z,23.65
2017-09-18T08:15:36.400Z,24.35
2017-09-18T08:16:10.117Z,25.37
2017-09-18T08:16:43.852Z,27.67
2017-09-18T08:17:18.669Z,23.95
2017-09-18T08:17:53.221Z,21.75
2017-09-18T08:18:26.946Z,21.65
2017-09-18T08:19:00.654Z,26.08
2017-09-18T08:19:34.372Z,24.73
2017-09-18T08:20:08.091Z,24.67
2017-09-18T08:20:41.876Z,24.27
2017-09-18T08:21:15.586Z,23.73
2017-09-18T08:21:49.127Z,21.15
2017-09-18T08:22:23.950Z,21.52
2017-09-18T08:22:57.493Z,20.67
2017-09-18T08:23:31.228Z,17.58
2017-09-18T08:24:04.948Z,20.23
2017-09-18T08:24:38.680Z,19.05
2017-09-18T08:25:12.220Z,23.10
2017-09-18T08:25:45.951Z,21.98
2017-09-18T08:26:19.490Z,25.77
2017-09-18T08:26:53.228Z,20.10
2017-09-18T08:27:27.275Z,19.65
2017-09-18T08:28:01.033Z,19.02
2017-09-18T08:28:35.526Z,20.67
2017-09-18T08:29:09.266Z,19.08
2017-09-18T08:29:42.815Z,18.00
2017-09-18T08:30:17.120Z,18.85
2017-09-18T08:30:51.614Z,19.20
2017-09-18T08:31:25.324Z,23.05
2017-09-18T08:31:59.805Z,21.23
2017-09-18T08:32:33.844Z,22.52
2017-09-18T08:33:07.573Z,20.27
2017-09-18T08:33:41.293Z,21.65
2017-09-18T08:34:15.010Z,20.70
2017-09-18T08:34:49.493Z,18.02
2017-09-18T08:35:23.225Z,18.85
2017-09-18T08:35:56.924Z,21.02
2017-09-18T08:36:30.696Z,20.70
2017-09-18T08:37:05.178Z,21.05
2017-09-18T08:37:39.207Z,21.90